createdAt,value
2017-10-23T16:13:08.281Z,1012.59
2017-10-23T16:14:08.251Z,1012.61
2017-10-23T16:16:01.139Z,1012.59
2017-10-23T16:17:01.112Z,1012.58
2017-10-23T16:18:53.987Z,1012.64
2017-10-23T16:19:53.976Z,1012.68
2017-10-23T16:21:46.989Z,1012.70
2017-10-23T16:22:46.841Z,1012.73
2017-10-23T16:24:39.713Z,1012.68
2017-10-23T16:25:39.703Z,1012.67
2017-10-23T16:27:32.591Z,1012.71
2017-10-23T16:28:32.569Z,1012.74
2017-10-23T16:30:25.434Z,1012.75
2017-10-23T16:31:25.428Z,1012.76
2017-10-23T16:33:18.317Z,1012.78
2017-10-23T16:34:18.295Z,1012.78
2017-10-23T16:36:11.167Z,1012.79
2017-10-23T16:37:11.158Z,1012.80
2017-10-23T16:39:04.056Z,1012.82
2017-10-23T16:40:04.021Z,1012.76
2017-10-23T16:41:04.023Z,1012.86
2017-10-23T16:42:04.020Z,1012.83
2017-10-23T16:43:04.023Z,1012.84
2017-10-23T16:44:04.032Z,1012.86
2017-10-23T16:45:04.015Z,1012.83
2017-10-23T16:46:04.023Z,1012.87
2017-10-23T16:47:04.004Z,1012.89
2017-10-23T16:48:04.526Z,1012.85
2017-10-23T16:49:04.001Z,1012.83
2017-10-23T16:50:03.996Z,1012.84
2017-10-23T16:51:03.993Z,1012.89
2017-10-23T16:52:04.016Z,1012.90
2017-10-23T16:53:04.018Z,1012.90
2017-10-23T16:54:03.982Z,1012.93
2017-10-23T16:55:03.994Z,1012.89
2017-10-23T16:56:04.016Z,1012.92
2017-10-23T16:57:03.972Z,1012.95
2017-10-23T16:58:03.991Z,1012.95
2017-10-23T16:59:03.977Z,1012.98
2017-10-23T17:00:03.978Z,1013.00
2017-10-23T17:01:03.991Z,1013.05
2017-10-23T17:02:03.991Z,1013.04
2017-10-23T17:03:03.966Z,1013.05
2017-10-23T17:04:03.948Z,1013.10
2017-10-23T17:05:03.943Z,1013.10
2017-10-23T17:06:03.939Z,1013.11
2017-10-23T17:07:03.961Z,1013.11
2017-10-23T17:08:03.929Z,1013.09
2017-10-23T17:09:03.924Z,1013.13
2017-10-23T17:10:03.924Z,1013.12
2017-10-23T17:11:03.922Z,1013.13
2017-10-23T17:12:03.918Z,1013.17
2017-10-23T17:13:03.920Z,1013.17
2017-10-23T17:14:03.908Z,1013.18
2017-10-23T17:15:03.914Z,1013.18
2017-10-23T17:16:03.904Z,1013.19
2017-10-23T17:17:03.903Z,1013.20
2017-10-23T17:18:03.893Z,1013.15
2017-10-23T17:19:03.891Z,1013.22
2017-10-23T17:20:03.889Z,1013.19
2017-10-23T17:21:03.886Z,1013.29
2017-10-23T17:22:03.884Z,1013.29
2017-10-23T17:23:03.878Z,1013.23
2017-10-23T17:24:03.873Z,1013.29
2017-10-23T17:25:03.871Z,1013.31
2017-10-23T17:26:03.876Z,1013.29
2017-10-23T17:27:03.856Z,1013.33
2017-10-23T17:28:03.876Z,1013.34
2017-10-23T17:29:03.858Z,1013.35
2017-10-23T17:30:03.855Z,1013.37
2017-10-23T17:31:03.853Z,1013.35
2017-10-23T17:32:03.851Z,1013.38
2017-10-23T17:33:03.844Z,1013.38
2017-10-23T17:34:03.845Z,1013.42
2017-10-23T17:35:03.838Z,1013.40
2017-10-23T17:36:03.840Z,1013.42
2017-10-23T17:37:03.829Z,1013.39
2017-10-23T17:38:03.824Z,1013.42
2017-10-23T17:39:03.820Z,1013.39
2017-10-23T17:40:03.814Z,1013.44
2017-10-23T17:41:03.826Z,1013.43
2017-10-23T17:42:03.968Z,1013.46
2017-10-23T17:43:03.828Z,1013.46
2017-10-23T17:44:03.821Z,1013.45
2017-10-23T17:45:03.804Z,1013.50
2017-10-23T17:46:03.849Z,1013.48
2017-10-23T17:47:03.794Z,1013.49
2017-10-23T17:49:03.786Z,1013.48
2017-10-23T17:50:03.783Z,1013.47
2017-10-23T17:51:03.776Z,1013.49
2017-10-23T17:52:03.783Z,1013.50
2017-10-23T17:53:03.797Z,1013.53
2017-10-23T17:54:03.769Z,1013.50
2017-10-23T17:55:03.758Z,1013.56
2017-10-23T17:56:03.758Z,1013.53
2017-10-23T17:57:03.754Z,1013.50
2017-10-23T17:58:03.753Z,1013.48
2017-10-23T17:59:03.749Z,1013.48
2017-10-23T18:00:03.745Z,1013.50
2017-10-23T18:01:03.750Z,1013.48
2017-10-23T18:02:03.729Z,1013.47
2017-10-23T18:03:03.729Z,1013.52
2017-10-23T18:04:03.736Z,1013.51
2017-10-23T18:05:03.744Z,1013.52
2017-10-23T18:06:03.724Z,1013.53
2017-10-23T18:07:03.717Z,1013.53
2017-10-23T18:08:03.709Z,1013.51
2017-10-23T18:09:03.706Z,1013.54
2017-10-23T18:10:03.701Z,1013.56
2017-10-23T18:11:03.703Z,1013.55
2017-10-23T18:12:03.701Z,1013.57
2017-10-23T18:13:03.699Z,1013.55
2017-10-23T18:14:03.696Z,1013.55
2017-10-23T18:15:03.684Z,1013.58
2017-10-23T18:16:03.679Z,1013.59
2017-10-23T18:17:03.678Z,1013.58
2017-10-23T18:18:03.676Z,1013.61
2017-10-23T18:19:03.678Z,1013.63
2017-10-23T18:20:03.668Z,1013.68
2017-10-23T18:21:03.665Z,1013.65
2017-10-23T18:22:03.661Z,1013.67
2017-10-23T18:23:03.673Z,1013.66
2017-10-23T18:24:03.655Z,1013.68
2017-10-23T18:25:03.648Z,1013.66
2017-10-23T18:26:03.643Z,1013.70
2017-10-23T18:27:03.638Z,1013.71
2017-10-23T18:28:03.632Z,1013.73
2017-10-23T18:29:03.627Z,1013.74
2017-10-23T18:30:03.624Z,1013.79
2017-10-23T18:31:03.624Z,1013.80
2017-10-23T18:32:03.618Z,1013.81
2017-10-23T18:33:03.619Z,1013.82
2017-10-23T18:34:03.611Z,1013.83
2017-10-23T18:35:03.608Z,1013.83
2017-10-23T18:36:03.604Z,1013.86
2017-10-23T18:37:03.599Z,1013.82
2017-10-23T18:38:03.599Z,1013.82
2017-10-23T18:39:03.589Z,1013.83
2017-10-23T18:40:03.592Z,1013.86
2017-10-23T18:41:03.589Z,1013.86
2017-10-23T18:42:03.581Z,1013.85
2017-10-23T18:43:03.577Z,1013.92
2017-10-23T18:44:03.573Z,1013.90
2017-10-23T18:45:03.569Z,1013.89
2017-10-23T18:46:03.574Z,1013.95
2017-10-23T18:47:03.559Z,1013.94
2017-10-23T18:48:03.558Z,1013.94
2017-10-23T18:49:03.560Z,1013.93
2017-10-23T18:50:03.546Z,1013.95
2017-10-23T18:51:03.548Z,1013.93
2017-10-23T18:52:03.540Z,1013.89
2017-10-23T18:53:03.538Z,1013.95
2017-10-23T18:54:03.534Z,1013.97
2017-10-23T18:55:03.529Z,1013.99
2017-10-23T18:56:03.525Z,1014.01
2017-10-23T18:57:03.522Z,1014.02
2017-10-23T18:58:03.518Z,1013.99
2017-10-23T18:59:03.525Z,1014.02
2017-10-23T19:00:03.515Z,1014.00
2017-10-23T19:01:03.506Z,1014.01
2017-10-23T19:02:03.492Z,1014.02
2017-10-23T19:03:03.503Z,1014.04
2017-10-23T19:04:03.486Z,1014.01
2017-10-23T19:05:03.492Z,1014.04
2017-10-23T19:06:03.481Z,1014.04
2017-10-23T19:07:03.477Z,1013.97
2017-10-23T19:08:03.480Z,1014.00
2017-10-23T19:09:03.473Z,1014.03
2017-10-23T19:10:03.468Z,1014.03
2017-10-23T19:11:03.466Z,1014.03
2017-10-23T19:12:03.464Z,1014.07
2017-10-23T19:13:03.461Z,1014.09
2017-10-23T19:14:03.459Z,1014.08
2017-10-23T19:15:03.448Z,1014.11
2017-10-23T19:16:03.453Z,1014.09
2017-10-23T19:17:03.440Z,1014.16
2017-10-23T19:18:03.436Z,1014.10
2017-10-23T19:19:03.439Z,1014.11
2017-10-23T19:20:03.426Z,1014.19
2017-10-23T19:21:03.428Z,1014.18
2017-10-23T19:22:03.424Z,1014.19
2017-10-23T19:23:03.414Z,1014.22
2017-10-23T19:24:03.415Z,1014.21
2017-10-23T19:25:03.410Z,1014.25
2017-10-23T19:26:03.405Z,1014.22
2017-10-23T19:27:03.399Z,1014.20
2017-10-23T19:28:03.399Z,1014.19
2017-10-23T19:29:03.394Z,1014.17
2017-10-23T19:30:03.388Z,1014.21
2017-10-23T19:31:03.382Z,1014.20
2017-10-23T19:32:03.391Z,1014.19
2017-10-23T19:33:03.382Z,1014.19
2017-10-23T19:34:03.374Z,1014.22
2017-10-23T19:35:03.368Z,1014.23
2017-10-23T19:36:03.364Z,1014.24
2017-10-23T19:37:03.361Z,1014.23
2017-10-23T19:38:03.361Z,1014.27
2017-10-23T19:39:03.351Z,1014.32
2017-10-23T19:40:03.344Z,1014.28
2017-10-23T19:41:03.350Z,1014.32
2017-10-23T19:42:03.336Z,1014.32
2017-10-23T19:43:03.336Z,1014.33
2017-10-23T19:44:03.332Z,1014.38
2017-10-23T19:45:03.328Z,1014.41
2017-10-23T19:46:03.324Z,1014.42
2017-10-23T19:47:03.317Z,1014.44
2017-10-23T19:48:03.331Z,1014.44
2017-10-23T19:49:03.314Z,1014.44
2017-10-23T19:50:03.308Z,1014.44
2017-10-23T19:51:03.304Z,1014.45
2017-10-23T19:52:03.303Z,1014.44
2017-10-23T19:53:03.301Z,1014.44
2017-10-23T19:54:03.295Z,1014.44
2017-10-23T19:55:03.288Z,1014.47
2017-10-23T19:56:03.282Z,1014.46
2017-10-23T19:57:03.281Z,1014.48
2017-10-23T19:58:03.274Z,1014.48
2017-10-23T19:59:03.280Z,1014.47
2017-10-23T20:00:03.269Z,1014.44
2017-10-23T20:01:03.265Z,1014.43
2017-10-23T20:02:03.260Z,1014.48
2017-10-23T20:03:03.256Z,1014.41
2017-10-23T20:04:03.252Z,1014.41
2017-10-23T20:05:03.255Z,1014.44
2017-10-23T20:06:03.244Z,1014.43
2017-10-23T20:07:03.239Z,1014.44
2017-10-23T20:08:03.246Z,1014.42
2017-10-23T20:09:03.233Z,1014.43
2017-10-23T20:10:03.230Z,1014.44
2017-10-23T20:11:03.234Z,1014.47
2017-10-23T20:12:03.215Z,1014.45
2017-10-23T20:13:03.219Z,1014.47
2017-10-23T20:14:03.229Z,1014.50
2017-10-23T20:15:03.233Z,1014.51
2017-10-23T20:16:03.214Z,1014.51
2017-10-23T20:17:03.199Z,1014.49
2017-10-23T20:18:03.192Z,1014.52
2017-10-23T20:19:03.195Z,1014.57
2017-10-23T20:20:03.186Z,1014.56
2017-10-23T20:21:03.184Z,1014.58
2017-10-23T20:22:03.179Z,1014.58
2017-10-23T20:23:03.180Z,1014.62
2017-10-23T20:24:03.172Z,1014.62
2017-10-23T20:25:04.091Z,1014.58
2017-10-23T20:26:04.089Z,1014.62
2017-10-23T20:27:03.153Z,1014.58
2017-10-23T20:28:03.155Z,1014.59
2017-10-23T20:29:03.157Z,1014.58
2017-10-23T20:30:03.141Z,1014.63
2017-10-23T20:31:04.088Z,1014.62
2017-10-23T20:32:03.138Z,1014.68
2017-10-23T20:33:03.142Z,1014.69
2017-10-23T20:34:03.133Z,1014.73
2017-10-23T20:35:03.130Z,1014.72
2017-10-23T20:36:03.123Z,1014.72
2017-10-23T20:37:03.117Z,1014.73
2017-10-23T20:38:03.111Z,1014.69
2017-10-23T20:39:03.110Z,1014.68
2017-10-23T20:40:03.104Z,1014.68
2017-10-23T20:41:03.109Z,1014.72
2017-10-23T20:42:03.099Z,1014.74
2017-10-23T20:43:03.103Z,1014.73
2017-10-23T20:44:03.099Z,1014.75
2017-10-23T20:45:03.086Z,1014.76
2017-10-23T20:46:03.287Z,1014.74
2017-10-23T20:47:03.081Z,1014.74
2017-10-23T20:48:03.106Z,1014.75
2017-10-23T20:49:03.073Z,1014.79
2017-10-23T20:50:03.067Z,1014.78
2017-10-23T20:51:03.098Z,1014.78
2017-10-23T20:52:03.056Z,1014.80
2017-10-23T20:53:03.054Z,1014.80
2017-10-23T20:54:03.049Z,1014.80
2017-10-23T20:55:03.052Z,1014.80
2017-10-23T20:56:03.041Z,1014.79
2017-10-23T20:57:03.037Z,1014.78
2017-10-23T20:58:03.031Z,1014.79
2017-10-23T20:59:03.019Z,1014.80
2017-10-23T21:00:03.026Z,1014.82
2017-10-23T21:01:03.023Z,1014.80
2017-10-23T21:02:03.013Z,1014.79
2017-10-23T21:03:03.133Z,1014.82
2017-10-23T21:04:03.055Z,1014.81
2017-10-23T21:05:03.011Z,1014.80
2017-10-23T21:06:03.004Z,1014.84
2017-10-23T21:07:02.994Z,1014.81
2017-10-23T21:08:02.996Z,1014.83
2017-10-23T21:09:02.989Z,1014.83
2017-10-23T21:10:02.991Z,1014.86
2017-10-23T21:11:02.981Z,1014.84
2017-10-23T21:12:02.974Z,1014.85
2017-10-23T21:13:02.970Z,1014.88
2017-10-23T21:14:02.972Z,1014.84
2017-10-23T21:15:02.964Z,1014.85
2017-10-23T21:16:02.965Z,1014.87
2017-10-23T21:17:02.958Z,1014.86
2017-10-23T21:18:02.960Z,1014.89
2017-10-23T21:19:02.957Z,1014.87
2017-10-23T21:20:02.945Z,1014.86
2017-10-23T21:21:02.936Z,1014.86
2017-10-23T21:22:02.934Z,1014.87
2017-10-23T21:23:02.931Z,1014.85
2017-10-23T21:24:02.925Z,1014.88
2017-10-23T21:25:02.934Z,1014.85
2017-10-23T21:26:02.918Z,1014.90
2017-10-23T21:27:02.911Z,1014.90
2017-10-23T21:28:02.936Z,1014.90
2017-10-23T21:29:02.909Z,1014.89
2017-10-23T21:30:02.899Z,1014.93
2017-10-23T21:31:02.895Z,1014.91
2017-10-23T21:32:03.124Z,1014.90
2017-10-23T21:33:02.889Z,1014.86
2017-10-23T21:34:02.896Z,1014.90
2017-10-23T21:35:02.880Z,1014.89
2017-10-23T21:36:02.881Z,1014.90
2017-10-23T21:37:02.869Z,1014.92
2017-10-23T21:38:02.870Z,1014.91
2017-10-23T21:39:02.862Z,1014.93
2017-10-23T21:40:02.859Z,1014.95
2017-10-23T21:41:02.864Z,1014.93
2017-10-23T21:42:02.882Z,1014.94
2017-10-23T21:43:02.877Z,1014.95
2017-10-23T21:44:02.839Z,1014.98
2017-10-23T21:45:02.849Z,1014.98
2017-10-23T21:46:02.838Z,1014.97
2017-10-23T21:47:02.827Z,1015.00
2017-10-23T21:48:02.824Z,1014.96
2017-10-23T21:49:02.817Z,1014.98
2017-10-23T21:50:02.820Z,1014.98
2017-10-23T21:51:02.818Z,1015.02
2017-10-23T21:52:02.806Z,1014.96
2017-10-23T21:53:02.801Z,1014.98
2017-10-23T21:54:02.796Z,1014.99
2017-10-23T21:55:02.794Z,1014.97
2017-10-23T21:56:02.789Z,1015.01
2017-10-23T21:57:02.784Z,1015.05
2017-10-23T21:58:02.781Z,1015.11
2017-10-23T21:59:02.776Z,1015.06
2017-10-23T22:00:02.803Z,1015.06
2017-10-23T22:01:02.772Z,1015.06
2017-10-23T22:02:02.761Z,1015.09
2017-10-23T22:03:02.760Z,1015.08
2017-10-23T22:04:02.755Z,1015.03
2017-10-23T22:05:02.757Z,1015.06
2017-10-23T22:06:02.838Z,1015.03
2017-10-23T22:07:02.740Z,1015.03
2017-10-23T22:08:02.736Z,1015.06
2017-10-23T22:09:02.733Z,1015.08
2017-10-23T22:10:02.728Z,1015.04
2017-10-23T22:11:02.719Z,1015.05
2017-10-23T22:12:02.716Z,1015.05
2017-10-23T22:13:02.716Z,1015.04
2017-10-23T22:14:02.712Z,1015.04
2017-10-23T22:15:02.705Z,1015.07
2017-10-23T22:16:02.712Z,1015.06
2017-10-23T22:17:02.696Z,1015.07
2017-10-23T22:18:02.691Z,1015.11
2017-10-23T22:19:02.686Z,1015.10
2017-10-23T22:20:02.682Z,1015.08
2017-10-23T22:21:02.679Z,1015.07
2017-10-23T22:22:02.678Z,1015.04
2017-10-23T22:23:02.830Z,1015.03
2017-10-23T22:24:02.666Z,1015.08
2017-10-23T22:25:02.660Z,1015.07
2017-10-23T22:26:02.655Z,1015.10
2017-10-23T22:27:02.651Z,1015.11
2017-10-23T22:28:02.654Z,1015.05
2017-10-23T22:29:02.656Z,1015.08
2017-10-23T22:30:02.644Z,1015.09
2017-10-23T22:31:02.632Z,1015.13
2017-10-23T22:32:02.630Z,1015.10
2017-10-23T22:33:02.623Z,1015.12
2017-10-23T22:34:02.634Z,1015.12
2017-10-23T22:35:02.611Z,1015.14
2017-10-23T22:36:02.608Z,1015.11
2017-10-23T22:37:02.605Z,1015.15
2017-10-23T22:38:02.600Z,1015.15
2017-10-23T22:39:02.596Z,1015.13
2017-10-23T22:40:02.592Z,1015.14
2017-10-23T22:41:02.587Z,1015.12
2017-10-23T22:42:02.581Z,1015.13
2017-10-23T22:43:02.579Z,1015.10
2017-10-23T22:44:02.571Z,1015.13
2017-10-23T22:45:02.575Z,1015.13
2017-10-23T22:46:02.560Z,1015.15
2017-10-23T22:47:02.557Z,1015.15
2017-10-23T22:48:02.553Z,1015.13
2017-10-23T22:49:02.553Z,1015.14
2017-10-23T22:50:02.544Z,1015.13
2017-10-23T22:51:02.539Z,1015.14
2017-10-23T22:52:02.532Z,1015.13
2017-10-23T22:53:02.531Z,1015.13
2017-10-23T22:54:02.525Z,1015.14
2017-10-23T22:55:02.519Z,1015.10
2017-10-23T22:56:02.516Z,1015.14
2017-10-23T22:57:02.509Z,1015.16
2017-10-23T22:58:02.509Z,1015.16
2017-10-23T22:59:02.512Z,1015.16
2017-10-23T23:00:02.499Z,1015.19
2017-10-23T23:01:02.491Z,1015.17
2017-10-23T23:02:02.485Z,1015.17
2017-10-23T23:03:02.482Z,1015.17
2017-10-23T23:04:02.480Z,1015.18
2017-10-23T23:05:02.493Z,1015.17
2017-10-23T23:06:02.468Z,1015.18
2017-10-23T23:07:02.464Z,1015.20
2017-10-23T23:08:02.459Z,1015.20
2017-10-23T23:09:02.450Z,1015.18
2017-10-23T23:10:02.488Z,1015.23
2017-10-23T23:11:02.444Z,1015.20
2017-10-23T23:12:02.436Z,1015.27
2017-10-23T23:13:02.432Z,1015.23
2017-10-23T23:14:02.434Z,1015.27
2017-10-23T23:15:02.423Z,1015.25
2017-10-23T23:16:02.426Z,1015.31
2017-10-23T23:17:02.419Z,1015.33
2017-10-23T23:18:02.409Z,1015.30
2017-10-23T23:19:02.404Z,1015.35
2017-10-23T23:20:02.398Z,1015.38
2017-10-23T23:21:02.396Z,1015.33
2017-10-23T23:22:02.387Z,1015.33
2017-10-23T23:23:02.378Z,1015.34
2017-10-23T23:24:02.389Z,1015.33
2017-10-23T23:25:02.376Z,1015.36
2017-10-23T23:26:02.368Z,1015.36
2017-10-23T23:27:02.363Z,1015.35
2017-10-23T23:28:02.365Z,1015.33
2017-10-23T23:29:02.358Z,1015.39
2017-10-23T23:30:02.350Z,1015.37
2017-10-23T23:31:02.346Z,1015.32
2017-10-23T23:32:02.339Z,1015.34
2017-10-23T23:33:02.334Z,1015.32
2017-10-23T23:34:02.329Z,1015.36
2017-10-23T23:35:02.325Z,1015.33
2017-10-23T23:36:02.333Z,1015.34
2017-10-23T23:37:02.324Z,1015.35
2017-10-23T23:38:02.313Z,1015.32
2017-10-23T23:39:02.307Z,1015.27
2017-10-23T23:40:02.453Z,1015.27
2017-10-23T23:41:02.291Z,1015.26
2017-10-23T23:42:02.290Z,1015.24
2017-10-23T23:43:02.292Z,1015.26
2017-10-23T23:44:02.282Z,1015.23
2017-10-23T23:45:02.280Z,1015.22
2017-10-23T23:46:02.274Z,1015.20
2017-10-23T23:47:02.270Z,1015.19
2017-10-23T23:48:02.265Z,1015.17
2017-10-23T23:49:02.261Z,1015.19
2017-10-23T23:50:02.252Z,1015.24
2017-10-23T23:51:02.250Z,1015.24
2017-10-23T23:52:02.245Z,1015.26
2017-10-23T23:53:02.242Z,1015.26
2017-10-23T23:54:02.232Z,1015.27
2017-10-23T23:55:02.227Z,1015.27
2017-10-23T23:56:02.228Z,1015.27
2017-10-23T23:57:02.223Z,1015.30
2017-10-23T23:58:02.216Z,1015.30
2017-10-23T23:59:02.213Z,1015.27
